Time;durP1;ratioP1;P1;durP2;ratioP2;P2;SDS_P1;SDS_P2;PMS_P1;PMS_P2;Temp;Humidity;BMP_temperature;BMP_pressure;BME280_temperature;BME280_humidity;BME280_pressure;Samples;Min_cycle;Max_cycle;Signal;HPM_P1;HPM_P2
2023/04/12 00:02:19;;;;;;;5.20;2.50;;;11.80;99.70;;;;;;5044667;28;20210;-69
2023/04/12 00:04:45;;;;;;;3.60;2.80;;;11.90;99.90;;;;;;5045737;28;20181;-71
2023/04/12 00:07:10;;;;;;;4.70;2.57;;;11.90;99.90;;;;;;5045750;28;20470;-72
2023/04/12 00:09:36;;;;;;;4.70;2.90;;;11.80;99.90;;;;;;5045682;28;20170;-71
2023/04/12 00:12:03;;;;;;;6.20;2.70;;;11.80;99.90;;;;;;5046041;28;20201;-74
2023/04/12 00:14:28;;;;;;;4.03;2.53;;;11.70;99.90;;;;;;5045639;28;20819;-69
2023/04/12 00:16:54;;;;;;;6.13;3.23;;;11.70;99.90;;;;;;5062894;28;20468;-71
2023/04/12 00:19:20;;;;;;;7.10;2.60;;;11.70;99.90;;;;;;5045711;28;20175;-70
2023/04/12 00:21:46;;;;;;;4.87;2.53;;;11.70;99.90;;;;;;5045352;28;20529;-70
2023/04/12 00:24:12;;;;;;;5.70;2.37;;;11.80;99.90;;;;;;5045091;28;20196;-70
2023/04/12 00:26:38;;;;;;;6.17;2.80;;;11.80;99.90;;;;;;5061985;28;20175;-70
2023/04/12 00:29:03;;;;;;;4.20;2.13;;;11.90;99.90;;;;;;5061584;28;20544;-71
2023/04/12 00:31:29;;;;;;;4.67;2.77;;;11.80;99.90;;;;;;5062131;28;20224;-70
2023/04/12 00:33:55;;;;;;;4.00;2.23;;;11.70;99.90;;;;;;5045395;28;20210;-73
2023/04/12 00:36:21;;;;;;;7.53;2.40;;;11.50;99.90;;;;;;5045481;28;20741;-71
2023/04/12 00:38:46;;;;;;;6.27;2.40;;;11.50;99.90;;;;;;5061585;28;20187;-70
2023/04/12 00:41:13;;;;;;;5.20;2.60;;;11.60;99.90;;;;;;5045000;28;20202;-70
2023/04/12 00:43:40;;;;;;;4.50;2.37;;;11.40;99.90;;;;;;5061879;28;20277;-70
2023/04/12 00:46:07;;;;;;;6.00;2.53;;;11.10;99.90;;;;;;5062035;28;20941;-72
2023/04/12 00:48:32;;;;;;;5.73;3.53;;;11.20;99.90;;;;;;5061376;28;20546;-70
2023/04/12 00:51:00;;;;;;;5.67;3.30;;;11.00;99.90;;;;;;5044945;28;20527;-70
2023/04/12 00:53:26;;;;;;;3.40;2.50;;;10.90;99.90;;;;;;5061463;28;20199;-70
2023/04/12 00:55:53;;;;;;;5.20;2.50;;;10.90;99.90;;;;;;5044902;28;20439;-70
2023/04/12 00:58:23;;;;;;;5.27;2.60;;;11.00;99.90;;;;;;5044983;28;20952;-70
2023/04/12 01:00:51;;;;;;;2.23;1.90;;;11.10;99.90;;;;;;5061606;28;20420;-71
2023/04/12 01:03:21;;;;;;;5.00;2.50;;;11.20;99.90;;;;;;5061532;28;20934;-70
2023/04/12 01:05:58;;;;;;;6.07;2.70;;;11.00;99.90;;;;;;5044724;28;20419;-70
2023/04/12 01:08:37;;;;;;;3.73;2.20;;;10.90;99.90;;;;;;5044339;28;20970;-69
2023/04/12 01:11:19;;;;;;;3.57;2.50;;;10.90;99.90;;;;;;5044360;28;20439;-70
2023/04/12 01:13:54;;;;;;;3.77;2.57;;;11.00;99.90;;;;;;5063843;28;20503;-70
2023/04/12 01:16:35;;;;;;;5.80;2.60;;;10.80;99.90;;;;;;5048996;28;20787;-71
2023/04/12 01:19:04;;;;;;;5.00;3.03;;;10.70;99.90;;;;;;5065068;28;20416;-69
2023/04/12 01:21:39;;;;;;;3.87;2.83;;;10.60;99.90;;;;;;5064603;28;21364;-72
2023/04/12 01:24:35;;;;;;;4.93;2.63;;;10.60;99.90;;;;;;5056462;28;20404;-73
2023/04/12 01:27:02;;;;;;;5.90;2.70;;;10.70;99.90;;;;;;5025079;28;20447;-70
2023/04/12 01:29:29;;;;;;;3.80;2.40;;;10.80;99.90;;;;;;5065369;28;21026;-71
2023/04/12 01:32:02;;;;;;;6.17;2.57;;;10.90;99.90;;;;;;5048645;28;20446;-71
2023/04/12 01:34:31;;;;;;;3.60;2.60;;;10.90;99.90;;;;;;5064980;28;20415;-70
2023/04/12 01:37:00;;;;;;;5.70;2.87;;;10.80;99.90;;;;;;5048065;28;20416;-70
2023/04/12 01:39:26;;;;;;;7.20;3.07;;;10.90;99.90;;;;;;5047562;28;20829;-71
2023/04/12 01:41:52;;;;;;;4.73;2.00;;;10.80;99.90;;;;;;5064316;28;20549;-70
2023/04/12 01:44:17;;;;;;;5.73;2.57;;;10.80;99.90;;;;;;5064796;28;20529;-70
2023/04/12 01:46:46;;;;;;;7.23;2.70;;;10.70;99.90;;;;;;5064527;28;20174;-71
2023/04/12 01:49:12;;;;;;;7.50;3.03;;;10.70;99.90;;;;;;5064365;28;20191;-69
2023/04/12 01:51:45;;;;;;;5.27;2.40;;;10.60;99.90;;;;;;5047715;28;20463;-71
2023/04/12 01:54:21;;;;;;;4.97;2.83;;;10.60;99.90;;;;;;5047572;28;20521;-70
2023/04/12 01:56:52;;;;;;;6.03;2.73;;;10.50;99.90;;;;;;5047672;28;20422;-71
2023/04/12 01:59:18;;;;;;;3.80;2.97;;;10.40;99.90;;;;;;5047917;28;20500;-70
2023/04/12 02:01:45;;;;;;;3.47;2.13;;;10.50;99.90;;;;;;5064298;28;20489;-73
2023/04/12 02:04:12;;;;;;;5.60;3.00;;;10.50;99.90;;;;;;5064072;28;20440;-73
2023/04/12 02:06:39;;;;;;;5.17;2.83;;;10.40;99.90;;;;;;5064323;28;20508;-70
2023/04/12 02:09:05;;;;;;;9.07;2.90;;;10.30;99.90;;;;;;5063372;28;20469;-72
2023/04/12 02:11:31;;;;;;;5.60;3.10;;;10.00;99.90;;;;;;5063758;28;20451;-70
2023/04/12 02:13:56;;;;;;;4.80;2.67;;;10.00;99.90;;;;;;5047442;28;20231;-71
2023/04/12 02:16:22;;;;;;;8.73;3.60;;;10.00;99.90;;;;;;5047115;28;20181;-70
2023/04/12 02:18:50;;;;;;;8.47;3.67;;;9.90;99.90;;;;;;5047711;28;20190;-71
2023/04/12 02:21:15;;;;;;;7.03;3.23;;;9.80;99.90;;;;;;5047289;28;20431;-72
2023/04/12 02:23:42;;;;;;;4.27;2.90;;;9.70;99.90;;;;;;5047216;28;20867;-72
2023/04/12 02:26:09;;;;;;;4.73;2.77;;;9.70;99.90;;;;;;5063389;28;20210;-71
2023/04/12 02:28:36;;;;;;;6.27;3.43;;;9.80;99.90;;;;;;5063834;28;20493;-70
2023/04/12 02:31:03;;;;;;;4.03;2.97;;;9.90;99.90;;;;;;5047555;28;20505;-71
2023/04/12 02:33:29;;;;;;;5.27;2.90;;;9.90;99.90;;;;;;5064395;28;20435;-72
2023/04/12 02:35:56;;;;;;;3.90;2.90;;;9.90;99.90;;;;;;5047543;28;21027;-70
2023/04/12 02:38:22;;;;;;;6.37;3.00;;;9.90;99.90;;;;;;5046949;28;20424;-70
2023/04/12 02:40:47;;;;;;;4.67;2.97;;;9.90;99.90;;;;;;5046785;28;20439;-72
2023/04/12 02:43:13;;;;;;;2.90;2.57;;;10.10;99.90;;;;;;5063613;28;20998;-71
2023/04/12 02:45:39;;;;;;;7.43;3.63;;;10.00;99.90;;;;;;5063638;28;20183;-71
2023/04/12 02:48:05;;;;;;;7.43;3.30;;;10.00;99.90;;;;;;5063417;28;20206;-73
2023/04/12 02:50:30;;;;;;;4.43;3.20;;;9.90;99.90;;;;;;5063594;28;20314;-72
2023/04/12 02:52:56;;;;;;;7.33;3.20;;;9.90;99.90;;;;;;5046638;28;20463;-70
2023/04/12 02:55:22;;;;;;;4.20;3.27;;;9.80;99.90;;;;;;5063370;28;20178;-71
2023/04/12 02:57:47;;;;;;;5.63;3.40;;;9.90;99.90;;;;;;5046263;28;20182;-70
2023/04/12 03:00:15;;;;;;;5.33;3.97;;;9.90;99.90;;;;;;5046761;28;20182;-71
2023/04/12 03:02:41;;;;;;;5.80;3.37;;;9.90;99.90;;;;;;5062900;28;20206;-70
2023/04/12 03:05:07;;;;;;;8.27;4.57;;;9.90;99.90;;;;;;5046670;28;21036;-73
2023/04/12 03:07:34;;;;;;;5.20;3.47;;;10.00;99.90;;;;;;5046525;28;20467;-71
2023/04/12 03:10:00;;;;;;;4.30;3.70;;;10.00;99.90;;;;;;5046247;28;20951;-70
2023/04/12 03:12:26;;;;;;;4.30;3.80;;;10.10;99.90;;;;;;5046132;28;20432;-71
2023/04/12 03:14:51;;;;;;;6.30;3.77;;;9.80;99.90;;;;;;5046156;28;20178;-71
2023/04/12 03:17:17;;;;;;;6.10;5.10;;;9.90;99.90;;;;;;5046471;28;20184;-71
2023/04/12 03:19:42;;;;;;;5.03;4.23;;;9.80;99.90;;;;;;5046628;28;20236;-69
2023/04/12 03:22:08;;;;;;;4.97;3.67;;;9.90;99.90;;;;;;5046262;28;20206;-70
2023/04/12 03:24:34;;;;;;;5.90;3.00;;;10.00;99.90;;;;;;5045765;28;20686;-70
2023/04/12 03:27:04;;;;;;;5.87;3.90;;;10.00;99.90;;;;;;5045805;28;20190;-70
2023/04/12 03:29:30;;;;;;;7.17;4.03;;;10.00;99.90;;;;;;5062428;28;20178;-69
2023/04/12 03:31:58;;;;;;;4.20;3.80;;;10.00;99.90;;;;;;5062383;28;20452;-69
2023/04/12 03:34:26;;;;;;;5.50;3.90;;;10.00;99.90;;;;;;5046012;28;20940;-71
2023/04/12 03:36:53;;;;;;;4.67;4.00;;;10.00;99.90;;;;;;5045697;28;20423;-70
2023/04/12 03:39:18;;;;;;;6.93;4.40;;;9.90;99.90;;;;;;5045782;28;20956;-69
2023/04/12 03:41:45;;;;;;;4.67;4.03;;;9.90;99.90;;;;;;5062015;28;20432;-70
2023/04/12 03:44:10;;;;;;;4.20;3.73;;;10.00;99.90;;;;;;5062698;28;20731;-70
2023/04/12 03:46:36;;;;;;;4.73;3.43;;;10.00;99.90;;;;;;5062264;28;20510;-71
2023/04/12 03:49:01;;;;;;;4.37;3.50;;;9.90;99.90;;;;;;5062195;28;20689;-70
2023/04/12 03:51:29;;;;;;;4.80;4.23;;;10.00;99.90;;;;;;5045532;28;20213;-70
2023/04/12 03:53:55;;;;;;;4.57;3.60;;;10.00;99.90;;;;;;5045643;28;20182;-69
2023/04/12 03:56:20;;;;;;;6.73;4.07;;;10.00;99.90;;;;;;5045776;28;20787;-71
2023/04/12 03:58:46;;;;;;;4.17;3.57;;;9.90;99.90;;;;;;5046113;28;20416;-71
2023/04/12 04:01:12;;;;;;;6.57;4.30;;;9.80;99.90;;;;;;5062941;28;20204;-71
2023/04/12 04:03:39;;;;;;;3.87;3.53;;;9.70;99.90;;;;;;5046888;28;20833;-71
2023/04/12 04:06:06;;;;;;;3.93;3.30;;;9.80;99.90;;;;;;5062872;28;20230;-68
2023/04/12 04:08:32;;;;;;;6.37;3.83;;;10.00;99.90;;;;;;5062559;28;20502;-70
2023/04/12 04:10:59;;;;;;;5.70;3.70;;;9.90;99.90;;;;;;5061679;28;20432;-71
2023/04/12 04:13:24;;;;;;;6.93;4.80;;;9.90;99.90;;;;;;5062255;28;20263;-69
2023/04/12 04:15:59;;;;;;;4.50;3.70;;;9.80;99.90;;;;;;5062130;28;20450;-70
2023/04/12 04:18:25;;;;;;;7.90;4.63;;;9.80;99.90;;;;;;5061708;28;20275;-69
2023/04/12 04:20:50;;;;;;;5.67;4.00;;;9.70;99.90;;;;;;5062365;28;20465;-70
2023/04/12 04:23:16;;;;;;;4.23;3.83;;;9.70;99.90;;;;;;5061775;28;20681;-69
2023/04/12 04:25:43;;;;;;;6.17;4.60;;;9.70;99.90;;;;;;5045273;28;20432;-70
2023/04/12 04:28:09;;;;;;;4.10;3.70;;;9.70;99.90;;;;;;5044693;28;20201;-71
2023/04/12 04:30:37;;;;;;;5.40;3.70;;;9.80;99.90;;;;;;5062184;28;20416;-71
2023/04/12 04:33:03;;;;;;;4.40;3.87;;;9.80;99.90;;;;;;5045366;28;20198;-70
2023/04/12 04:35:30;;;;;;;6.50;5.43;;;9.80;99.90;;;;;;5045319;28;20516;-70
2023/04/12 04:37:56;;;;;;;6.43;5.80;;;9.80;99.90;;;;;;5045198;28;20431;-71
2023/04/12 04:40:23;;;;;;;7.07;5.47;;;9.80;99.90;;;;;;5061309;28;20445;-70
2023/04/12 04:42:53;;;;;;;5.27;4.70;;;9.90;99.90;;;;;;5044517;28;20965;-68
2023/04/12 04:45:25;;;;;;;7.30;5.73;;;9.90;99.90;;;;;;5061696;28;20790;-70
2023/04/12 04:47:55;;;;;;;8.23;6.30;;;10.00;99.90;;;;;;5046681;28;20510;-72
2023/04/12 04:50:23;;;;;;;5.20;4.70;;;10.00;99.90;;;;;;5065397;28;20411;-71
2023/04/12 04:52:50;;;;;;;5.17;4.67;;;9.90;99.90;;;;;;5065467;28;21155;-71
2023/04/12 04:55:23;;;;;;;4.37;3.97;;;9.90;99.90;;;;;;5065472;28;20459;-69
2023/04/12 04:57:49;;;;;;;4.40;3.37;;;9.80;99.90;;;;;;5048546;28;20957;-68
2023/04/12 05:00:15;;;;;;;4.60;4.20;;;10.00;99.90;;;;;;5065456;28;20422;-71
2023/04/12 05:02:42;;;;;;;5.93;4.70;;;9.80;99.90;;;;;;5065179;28;20240;-69
2023/04/12 05:05:12;;;;;;;6.80;4.30;;;9.80;99.90;;;;;;5048585;28;20785;-69
2023/04/12 05:07:38;;;;;;;4.80;4.40;;;9.80;99.90;;;;;;5049160;28;20532;-69
2023/04/12 05:10:04;;;;;;;5.20;4.70;;;9.80;99.90;;;;;;5047725;28;20943;-70
2023/04/12 05:12:30;;;;;;;6.07;5.23;;;9.90;99.90;;;;;;5048149;28;20438;-69
2023/04/12 05:14:56;;;;;;;4.60;3.77;;;10.00;99.90;;;;;;5065281;28;20565;-70
2023/04/12 05:17:22;;;;;;;6.40;5.57;;;10.10;99.90;;;;;;5065047;28;20182;-70
2023/04/12 05:19:47;;;;;;;6.20;5.17;;;10.00;99.90;;;;;;5048232;28;20439;-70
2023/04/12 05:22:13;;;;;;;5.00;4.20;;;9.90;99.90;;;;;;5048357;28;20573;-70
2023/04/12 05:24:39;;;;;;;5.07;4.53;;;9.90;99.90;;;;;;5065126;28;20190;-70
2023/04/12 05:27:04;;;;;;;5.17;4.03;;;9.80;99.90;;;;;;5066632;28;20188;-71
2023/04/12 05:29:30;;;;;;;5.40;4.30;;;9.80;99.90;;;;;;5048581;28;20226;-71
2023/04/12 05:31:57;;;;;;;4.83;4.20;;;9.80;99.90;;;;;;5047899;28;20198;-71
2023/04/12 05:34:23;;;;;;;5.93;5.40;;;9.80;99.90;;;;;;5064648;28;20174;-69
2023/04/12 05:36:49;;;;;;;7.73;5.83;;;9.80;99.90;;;;;;5048136;28;20405;-71
2023/04/12 05:39:15;;;;;;;7.57;5.30;;;9.70;99.90;;;;;;5064664;28;20420;-69
2023/04/12 05:41:40;;;;;;;5.17;3.93;;;9.90;99.90;;;;;;5064529;28;20273;-69
2023/04/12 05:44:06;;;;;;;6.10;4.37;;;9.90;99.90;;;;;;5047967;28;20182;-70
2023/04/12 05:46:31;;;;;;;4.67;4.17;;;9.90;99.90;;;;;;5048201;28;20182;-70
2023/04/12 05:48:57;;;;;;;12.73;10.63;;;9.80;99.90;;;;;;5047875;28;20213;-69
2023/04/12 05:51:23;;;;;;;6.87;5.37;;;9.70;99.90;;;;;;5064386;28;20212;-69
2023/04/12 05:53:48;;;;;;;5.63;4.40;;;9.70;99.90;;;;;;5064712;28;20209;-69
2023/04/12 05:56:15;;;;;;;4.30;3.83;;;9.80;99.90;;;;;;5047580;28;20348;-68
2023/04/12 05:58:40;;;;;;;5.47;4.37;;;9.80;99.90;;;;;;5064089;28;20193;-71
2023/04/12 06:01:06;;;;;;;5.10;4.60;;;9.80;99.90;;;;;;5063381;28;21043;-68
2023/04/12 06:03:32;;;;;;;4.90;3.43;;;9.90;99.90;;;;;;5064232;28;20181;-70
2023/04/12 06:05:57;;;;;;;4.17;3.53;;;9.90;99.90;;;;;;5064369;28;20182;-69
2023/04/12 06:08:23;;;;;;;4.83;4.03;;;9.90;99.90;;;;;;5065740;28;20201;-70
2023/04/12 06:10:49;;;;;;;6.30;4.23;;;9.90;99.90;;;;;;5063270;28;20178;-71
2023/04/12 06:13:15;;;;;;;3.63;3.20;;;10.00;99.90;;;;;;5063639;28;20249;-71
2023/04/12 06:15:40;;;;;;;4.07;3.60;;;9.90;99.90;;;;;;5047479;28;20182;-71
2023/04/12 06:18:06;;;;;;;5.47;3.77;;;9.90;99.90;;;;;;5065427;28;20429;-70
2023/04/12 06:20:32;;;;;;;5.67;3.77;;;10.00;99.90;;;;;;5047806;28;20302;-69
2023/04/12 06:22:58;;;;;;;5.23;3.87;;;10.00;99.90;;;;;;5064014;28;20442;-69
2023/04/12 06:25:23;;;;;;;5.70;3.90;;;10.00;99.90;;;;;;5047619;28;20555;-70
2023/04/12 06:27:49;;;;;;;4.20;3.80;;;10.10;99.90;;;;;;5063542;28;20212;-69
2023/04/12 06:30:15;;;;;;;6.53;3.53;;;10.10;99.90;;;;;;5064595;28;20178;-68
2023/04/12 06:32:40;;;;;;;6.37;3.90;;;10.00;99.90;;;;;;5064565;28;20239;-69
2023/04/12 06:35:06;;;;;;;6.23;4.00;;;10.10;99.90;;;;;;5065938;28;20173;-70
2023/04/12 06:37:32;;;;;;;4.10;3.70;;;10.10;99.90;;;;;;5063539;28;20277;-70
2023/04/12 06:39:58;;;;;;;4.07;3.67;;;10.00;99.90;;;;;;5063860;28;20495;-70
2023/04/12 06:42:24;;;;;;;4.43;3.50;;;10.10;99.90;;;;;;5046675;28;20560;-70
2023/04/12 06:44:49;;;;;;;7.20;3.57;;;10.10;99.90;;;;;;5063571;28;20221;-70
2023/04/12 06:47:15;;;;;;;3.97;3.20;;;10.20;99.90;;;;;;5064017;28;20879;-70
2023/04/12 06:49:41;;;;;;;5.07;4.20;;;10.30;99.90;;;;;;5046993;28;20457;-69
2023/04/12 06:52:06;;;;;;;4.43;3.80;;;10.40;99.90;;;;;;5063838;28;20340;-70
2023/04/12 06:54:35;;;;;;;3.57;3.27;;;10.50;99.90;;;;;;5047163;28;20187;-71
2023/04/12 06:57:01;;;;;;;3.73;3.43;;;10.50;99.90;;;;;;5063370;28;20228;-71
2023/04/12 06:59:27;;;;;;;3.17;2.97;;;10.50;99.90;;;;;;5063459;28;20418;-71
2023/04/12 07:01:53;;;;;;;3.47;3.17;;;10.50;99.90;;;;;;5063090;28;20448;-71
2023/04/12 07:04:18;;;;;;;4.30;3.43;;;10.60;99.90;;;;;;5063182;28;20784;-71
2023/04/12 07:06:44;;;;;;;3.27;2.87;;;10.60;99.90;;;;;;5046347;28;20299;-70
2023/04/12 07:09:10;;;;;;;3.63;2.93;;;10.50;99.90;;;;;;5046259;28;20230;-71
2023/04/12 07:11:35;;;;;;;4.13;3.13;;;10.50;99.90;;;;;;5062284;28;20206;-70
2023/04/12 07:14:01;;;;;;;3.00;2.70;;;10.60;99.90;;;;;;5063174;28;20189;-71
2023/04/12 07:16:30;;;;;;;4.00;3.30;;;10.60;99.90;;;;;;5062720;28;20178;-71
2023/04/12 07:18:55;;;;;;;3.27;3.00;;;10.60;99.90;;;;;;5045980;28;20178;-69
2023/04/12 07:21:21;;;;;;;4.00;3.30;;;10.60;99.90;;;;;;5046302;28;20446;-71
2023/04/12 07:23:50;;;;;;;3.43;3.13;;;10.50;99.90;;;;;;5045513;28;20179;-70
2023/04/12 07:26:16;;;;;;;3.83;2.37;;;10.60;99.90;;;;;;5046194;28;20453;-72
2023/04/12 07:28:42;;;;;;;3.00;2.70;;;10.60;99.90;;;;;;5062160;28;20456;-70
2023/04/12 07:31:07;;;;;;;3.73;3.40;;;10.60;99.90;;;;;;5062561;28;20487;-70
2023/04/12 07:33:34;;;;;;;4.93;3.33;;;10.60;99.90;;;;;;5062840;28;20179;-70
2023/04/12 07:36:00;;;;;;;3.67;3.00;;;10.60;99.90;;;;;;5046003;28;20191;-71
2023/04/12 07:38:26;;;;;;;5.40;3.30;;;10.70;99.90;;;;;;5045995;28;20940;-70
2023/04/12 07:40:54;;;;;;;3.10;2.90;;;10.80;99.90;;;;;;5062569;28;20423;-71
2023/04/12 07:43:20;;;;;;;3.57;3.23;;;10.80;99.90;;;;;;5062983;28;20193;-71
2023/04/12 07:45:45;;;;;;;3.43;3.00;;;10.80;99.90;;;;;;5046934;28;20424;-71
2023/04/12 07:48:11;;;;;;;3.23;2.93;;;10.80;99.90;;;;;;5046339;28;20512;-71
2023/04/12 07:50:37;;;;;;;4.70;3.37;;;10.90;99.90;;;;;;5048709;28;20231;-70
2023/04/12 07:53:26;;;;;;;3.57;2.87;;;11.00;99.90;;;;;;5048968;28;20224;-70
2023/04/12 07:55:52;;;;;;;2.50;2.20;;;11.00;99.90;;;;;;5064386;28;20408;-69
2023/04/12 07:58:19;;;;;;;3.10;2.80;;;11.10;99.90;;;;;;5061847;28;20420;-70
2023/04/12 08:00:45;;;;;;;3.10;2.87;;;11.10;99.90;;;;;;5062351;28;20420;-71
2023/04/12 08:03:12;;;;;;;4.13;2.93;;;11.30;99.90;;;;;;5045387;28;20477;-70
2023/04/12 08:05:38;;;;;;;3.10;2.80;;;11.50;99.90;;;;;;5044902;28;20492;-67
2023/04/12 08:08:04;;;;;;;3.63;2.70;;;11.60;99.90;;;;;;5045219;28;20285;-69
2023/04/12 08:10:31;;;;;;;2.87;2.67;;;11.80;99.90;;;;;;5044425;28;20441;-68
2023/04/12 08:12:57;;;;;;;2.40;2.20;;;11.80;99.90;;;;;;5062294;28;20559;-68
2023/04/12 08:15:23;;;;;;;3.77;2.53;;;11.80;99.90;;;;;;5045863;28;20515;-68
2023/04/12 08:17:49;;;;;;;2.47;2.27;;;11.60;99.90;;;;;;5062205;28;20499;-68
2023/04/12 08:20:15;;;;;;;6.30;2.50;;;11.70;99.90;;;;;;5045561;28;20183;-67
2023/04/12 08:22:44;;;;;;;2.70;1.80;;;11.70;99.90;;;;;;5061184;28;20427;-69
2023/04/12 08:25:09;;;;;;;2.60;2.40;;;11.60;99.90;;;;;;5061986;28;20272;-66
2023/04/12 08:27:36;;;;;;;2.40;2.17;;;11.60;99.90;;;;;;5045348;28;20558;-68
2023/04/12 08:30:02;;;;;;;2.13;1.80;;;11.80;99.90;;;;;;5045048;28;20181;-67
2023/04/12 08:32:28;;;;;;;2.20;2.07;;;11.80;99.90;;;;;;5062059;28;20433;-68
2023/04/12 08:34:54;;;;;;;2.87;2.47;;;11.90;99.90;;;;;;5061727;28;20462;-68
2023/04/12 08:37:20;;;;;;;2.80;2.17;;;12.00;99.90;;;;;;5045157;28;20242;-69
2023/04/12 08:39:45;;;;;;;2.30;2.07;;;11.90;99.90;;;;;;5044720;28;20945;-69
2023/04/12 08:42:17;;;;;;;2.07;1.87;;;12.10;99.90;;;;;;5044858;28;20204;-67
2023/04/12 08:44:43;;;;;;;2.23;2.07;;;12.00;99.90;;;;;;5044958;28;20186;-67
2023/04/12 08:47:09;;;;;;;2.10;1.87;;;11.90;99.90;;;;;;5045135;28;20417;-69
2023/04/12 08:49:35;;;;;;;1.70;1.60;;;11.80;99.90;;;;;;5061829;28;20257;-70
2023/04/12 08:52:06;;;;;;;2.00;1.77;;;11.90;99.90;;;;;;5045191;28;20458;-71
2023/04/12 08:54:36;;;;;;;2.63;1.80;;;12.10;99.90;;;;;;5061648;28;20178;-69
2023/04/12 08:57:08;;;;;;;3.70;2.00;;;12.20;99.90;;;;;;5061475;28;21051;-71
2023/04/12 08:59:37;;;;;;;5.60;2.03;;;12.00;99.90;;;;;;5045089;28;21170;-69
2023/04/12 09:02:03;;;;;;;2.00;1.80;;;12.20;99.90;;;;;;5044722;28;20468;-70
2023/04/12 09:04:28;;;;;;;3.67;2.03;;;12.20;99.90;;;;;;5045375;28;20960;-70
2023/04/12 09:06:55;;;;;;;2.00;1.70;;;12.00;99.90;;;;;;5061569;28;20436;-69
2023/04/12 09:09:40;;;;;;;4.20;2.33;;;11.90;99.90;;;;;;5044814;28;20211;-71
2023/04/12 09:12:06;;;;;;;2.60;2.07;;;11.90;99.90;;;;;;5061040;28;20932;-71
2023/04/12 09:14:32;;;;;;;3.40;2.30;;;11.90;99.90;;;;;;5061500;28;20420;-70
2023/04/12 09:16:57;;;;;;;1.63;1.43;;;12.00;99.90;;;;;;5044672;28;20417;-70
2023/04/12 09:19:34;;;;;;;2.77;2.17;;;12.10;99.90;;;;;;5061485;28;20198;-69
2023/04/12 09:22:00;;;;;;;1.80;1.70;;;12.20;99.90;;;;;;5060907;28;20205;-70
2023/04/12 09:24:27;;;;;;;3.13;1.90;;;12.40;99.90;;;;;;5061162;28;20415;-70
2023/04/12 09:27:03;;;;;;;2.30;1.80;;;12.30;99.90;;;;;;5044367;28;20542;-69
2023/04/12 09:29:30;;;;;;;2.60;2.13;;;12.60;99.90;;;;;;5062620;28;20518;-71
2023/04/12 09:32:02;;;;;;;2.60;1.90;;;12.80;99.90;;;;;;5044330;28;20435;-69
2023/04/12 09:34:29;;;;;;;3.27;2.03;;;13.00;99.90;;;;;;5063266;28;20831;-70
2023/04/12 09:36:55;;;;;;;2.60;2.20;;;13.00;99.90;;;;;;5047806;28;20509;-70
2023/04/12 09:39:30;;;;;;;3.70;1.93;;;13.30;99.90;;;;;;5064553;28;20418;-71
2023/04/12 09:42:06;;;;;;;3.40;2.20;;;13.20;99.90;;;;;;5064417;28;20465;-70
2023/04/12 09:44:33;;;;;;;3.23;2.40;;;13.30;99.90;;;;;;5048294;28;21210;-72
2023/04/12 09:47:00;;;;;;;3.20;2.27;;;13.30;99.90;;;;;;5048092;28;20425;-70
2023/04/12 09:49:56;;;;;;;2.20;2.00;;;13.20;99.90;;;;;;5047939;28;20862;-71
2023/04/12 09:52:21;;;;;;;2.37;2.17;;;13.30;99.90;;;;;;5047216;28;20500;-69
2023/04/12 09:54:47;;;;;;;2.70;2.43;;;13.30;99.90;;;;;;5047806;28;20458;-71
2023/04/12 09:57:19;;;;;;;3.17;2.27;;;13.30;99.90;;;;;;5047619;28;20189;-71
2023/04/12 09:59:47;;;;;;;3.37;2.33;;;13.60;99.90;;;;;;5047811;28;20273;-70
2023/04/12 10:02:15;;;;;;;4.20;2.60;;;13.80;99.90;;;;;;5047615;28;20480;-68
2023/04/12 10:04:41;;;;;;;2.20;2.00;;;13.70;99.90;;;;;;5047985;28;20434;-67
2023/04/12 10:07:07;;;;;;;2.70;2.40;;;13.80;99.90;;;;;;5064523;28;20453;-69
2023/04/12 10:09:36;;;;;;;4.93;2.47;;;14.10;99.90;;;;;;5065475;28;20423;-66
2023/04/12 10:12:02;;;;;;;3.77;2.17;;;14.30;99.90;;;;;;5063961;28;20241;-68
2023/04/12 10:14:29;;;;;;;2.90;2.03;;;14.60;99.90;;;;;;5048219;28;20950;-68
2023/04/12 10:17:00;;;;;;;1.90;1.77;;;14.80;99.90;;;;;;5047007;28;20413;-66
2023/04/12 10:19:27;;;;;;;4.80;2.30;;;14.80;99.90;;;;;;5064125;28;20427;-66
2023/04/12 10:21:55;;;;;;;3.53;1.90;;;14.90;99.90;;;;;;5063972;28;20443;-69
2023/04/12 10:24:25;;;;;;;2.00;1.80;;;14.80;99.90;;;;;;5065529;28;20939;-69
2023/04/12 10:26:54;;;;;;;2.20;1.93;;;15.10;99.90;;;;;;5047315;28;20840;-69
2023/04/12 10:29:32;;;;;;;3.57;2.00;;;15.20;99.90;;;;;;5065129;28;20545;-69
2023/04/12 10:32:18;;;;;;;4.70;2.50;;;15.20;99.90;;;;;;5047517;28;20827;-69
2023/04/12 10:34:44;;;;;;;3.43;1.87;;;15.20;99.90;;;;;;5063835;28;20965;-67
2023/04/12 10:37:09;;;;;;;3.90;2.50;;;15.30;99.90;;;;;;5065123;28;20405;-68
2023/04/12 10:39:51;;;;;;;2.80;1.80;;;15.50;99.90;;;;;;5064695;28;20225;-68
2023/04/12 10:42:24;;;;;;;3.70;1.93;;;15.30;99.90;;;;;;5046653;28;20256;-68
2023/04/12 10:45:18;;;;;;;4.23;2.40;;;15.10;99.90;;;;;;5064818;28;20706;-69
2023/04/12 10:48:31;;;;;;;2.80;2.30;;;15.30;99.90;;;;;;5018155;28;20463;-68
2023/04/12 10:51:21;;;;;;;3.60;1.87;;;16.00;99.90;;;;;;5039746;28;20509;-67
2023/04/12 10:53:47;;;;;;;3.80;2.37;;;15.40;99.90;;;;;;5063369;28;20992;-68
2023/04/12 10:56:31;;;;;;;3.73;2.10;;;15.40;99.90;;;;;;5063359;28;20420;-69
2023/04/12 10:58:58;;;;;;;4.53;1.90;;;15.50;99.90;;;;;;5046247;28;20179;-68
2023/04/12 11:01:25;;;;;;;2.50;1.87;;;15.50;99.90;;;;;;5046416;28;20433;-68
2023/04/12 11:04:11;;;;;;;2.33;1.67;;;15.60;99.90;;;;;;5063304;28;20963;-69
2023/04/12 11:06:52;;;;;;;3.37;1.60;;;15.60;99.90;;;;;;5046503;28;20880;-68
2023/04/12 11:09:24;;;;;;;1.70;1.60;;;15.90;99.90;;;;;;5045506;28;20589;-69
2023/04/12 11:12:05;;;;;;;2.83;1.83;;;16.20;99.90;;;;;;5046449;28;20949;-69
2023/04/12 11:14:43;;;;;;;3.00;1.77;;;16.30;99.90;;;;;;5062795;28;20903;-69
2023/04/12 11:17:11;;;;;;;2.00;1.30;;;16.50;99.90;;;;;;5048062;28;20473;-68
2023/04/12 11:19:42;;;;;;;3.20;2.13;;;16.30;99.90;;;;;;5065221;28;20427;-68
2023/04/12 11:22:12;;;;;;;2.83;1.70;;;16.30;99.90;;;;;;5046559;28;20478;-67
2023/04/12 11:24:48;;;;;;;2.30;1.60;;;16.30;99.90;;;;;;5046722;28;21175;-69
2023/04/12 11:27:15;;;;;;;2.00;1.57;;;16.40;99.90;;;;;;5064806;28;21098;-68
2023/04/12 11:29:45;;;;;;;2.17;1.43;;;16.40;99.90;;;;;;5047297;28;20499;-69
2023/04/12 11:32:12;;;;;;;3.23;1.90;;;16.20;99.90;;;;;;5046208;28;20433;-68
2023/04/12 11:34:40;;;;;;;1.60;1.20;;;16.10;99.90;;;;;;5047154;28;20429;-68
2023/04/12 11:37:07;;;;;;;2.27;1.37;;;16.10;99.90;;;;;;5062371;28;20421;-67
2023/04/12 11:39:34;;;;;;;3.70;1.60;;;16.20;99.90;;;;;;5062687;28;20432;-67
2023/04/12 11:42:02;;;;;;;2.53;1.00;;;15.90;99.90;;;;;;5062591;28;20450;-68
2023/04/12 11:44:28;;;;;;;5.80;1.40;;;16.10;99.90;;;;;;5062422;28;20468;-70
2023/04/12 11:46:54;;;;;;;2.23;1.23;;;16.30;99.90;;;;;;5045694;28;20431;-67
2023/04/12 11:49:21;;;;;;;2.17;1.63;;;16.10;99.90;;;;;;5045838;28;20517;-69
2023/04/12 11:51:47;;;;;;;4.73;1.27;;;16.10;99.90;;;;;;5062414;28;20542;-68
2023/04/12 11:54:13;;;;;;;2.63;1.33;;;16.60;99.90;;;;;;5064150;28;20506;-69
2023/04/12 11:56:40;;;;;;;3.17;1.50;;;16.80;99.90;;;;;;5062105;28;20208;-68
2023/04/12 11:59:07;;;;;;;3.00;1.60;;;17.00;99.90;;;;;;5044708;28;20501;-67
2023/04/12 12:01:36;;;;;;;2.27;1.77;;;16.90;99.90;;;;;;5062425;28;20448;-69
2023/04/12 12:04:03;;;;;;;1.53;1.07;;;17.00;99.90;;;;;;5062649;28;20420;-69
2023/04/12 12:06:30;;;;;;;2.10;1.03;;;16.50;99.90;;;;;;5045304;28;20435;-68
2023/04/12 12:08:56;;;;;;;1.67;0.97;;;15.90;99.90;;;;;;5044922;28;20453;-68
2023/04/12 12:11:23;;;;;;;3.73;1.20;;;15.90;99.90;;;;;;5062086;28;20449;-69
2023/04/12 12:13:55;;;;;;;1.83;1.07;;;15.90;99.90;;;;;;5061558;28;20817;-67
2023/04/12 12:16:26;;;;;;;2.40;1.00;;;16.00;99.90;;;;;;5062004;28;20419;-69
2023/04/12 12:18:53;;;;;;;3.57;1.10;;;16.00;99.90;;;;;;5062141;28;21013;-68
2023/04/12 12:21:19;;;;;;;2.23;1.03;;;16.30;99.90;;;;;;5063095;28;20431;-67
2023/04/12 12:23:46;;;;;;;1.90;1.17;;;16.30;99.90;;;;;;5045187;28;20945;-69
2023/04/12 12:26:26;;;;;;;1.30;0.83;;;16.90;99.90;;;;;;5063423;28;20468;-66
2023/04/12 12:28:56;;;;;;;1.23;0.80;;;17.50;99.90;;;;;;5063154;28;20451;-68
2023/04/12 12:31:25;;;;;;;2.40;1.40;;;17.90;99.90;;;;;;5063351;28;20439;-67
2023/04/12 12:33:58;;;;;;;2.30;1.00;;;17.60;99.90;;;;;;5062052;28;20412;-68
2023/04/12 12:36:32;;;;;;;2.37;0.80;;;17.60;99.90;;;;;;5063526;28;20440;-66
2023/04/12 12:39:14;;;;;;;1.20;0.90;;;17.80;99.90;;;;;;5062919;28;20477;-66
2023/04/12 12:41:40;;;;;;;1.03;0.83;;;17.50;99.90;;;;;;5064653;28;20940;-68
2023/04/12 12:44:06;;;;;;;2.70;0.90;;;18.40;99.90;;;;;;5062102;28;20507;-67
2023/04/12 12:46:32;;;;;;;1.30;1.00;;;19.50;99.90;;;;;;5045094;28;20412;-69
2023/04/12 12:48:58;;;;;;;2.43;1.23;;;20.70;99.90;;;;;;5061875;28;21246;-68
2023/04/12 12:51:23;;;;;;;1.13;1.03;;;21.40;99.10;;;;;;5061368;28;20477;-69
2023/04/12 12:53:50;;;;;;;2.80;0.90;;;21.70;99.30;;;;;;5045161;28;20224;-67